sensor_id;sensor_type;location;lat;lon;timestamp;pressure;altitude;pressure_sealevel;temperature;humidity
3544;BME280;1786;52.870;9.578;2022-08-21T00:00:22;100724.41;;;21.48;64.29
3544;BME280;1786;52.870;9.578;2022-08-21T00:02:54;100721.22;;;21.52;64.31
3544;BME280;1786;52.870;9.578;2022-08-21T00:05:22;100724.56;;;21.54;63.73
3544;BME280;1786;52.870;9.578;2022-08-21T00:07:50;100718.88;;;21.57;63.62
3544;BME280;1786;52.870;9.578;2022-08-21T00:10:18;100716.84;;;21.51;63.96
3544;BME280;1786;52.870;9.578;2022-08-21T00:12:45;100711.81;;;21.48;63.84
3544;BME280;1786;52.870;9.578;2022-08-21T00:15:15;100718.69;;;21.59;63.18
3544;BME280;1786;52.870;9.578;2022-08-21T00:17:42;100708.63;;;21.45;63.44
3544;BME280;1786;52.870;9.578;2022-08-21T00:20:11;100719.28;;;21.28;63.60
3544;BME280;1786;52.870;9.578;2022-08-21T00:22:38;100712.47;;;21.42;63.19
3544;BME280;1786;52.870;9.578;2022-08-21T00:25:06;100716.78;;;21.35;63.61
3544;BME280;1786;52.870;9.578;2022-08-21T00:27:33;100717.75;;;21.26;63.83
3544;BME280;1786;52.870;9.578;2022-08-21T00:30:00;100712.94;;;21.37;63.70
3544;BME280;1786;52.870;9.578;2022-08-21T00:32:28;100715.81;;;21.44;63.20
3544;BME280;1786;52.870;9.578;2022-08-21T00:34:55;100703.69;;;21.32;63.55
3544;BME280;1786;52.870;9.578;2022-08-21T00:37:21;100709.84;;;21.24;63.55
3544;BME280;1786;52.870;9.578;2022-08-21T00:39:48;100708.19;;;21.23;64.03
3544;BME280;1786;52.870;9.578;2022-08-21T00:42:16;100714.63;;;20.96;64.47
3544;BME280;1786;52.870;9.578;2022-08-21T00:44:45;100722.34;;;20.91;64.47
3544;BME280;1786;52.870;9.578;2022-08-21T00:47:13;100714.00;;;21.02;63.82
3544;BME280;1786;52.870;9.578;2022-08-21T00:49:40;100717.16;;;20.98;64.09
3544;BME280;1786;52.870;9.578;2022-08-21T00:52:09;100713.81;;;21.04;64.15
3544;BME280;1786;52.870;9.578;2022-08-21T00:54:39;100717.19;;;21.06;64.06
3544;BME280;1786;52.870;9.578;2022-08-21T00:57:24;100719.53;;;21.01;64.27
3544;BME280;1786;52.870;9.578;2022-08-21T00:59:56;100718.78;;;20.82;64.73
3544;BME280;1786;52.870;9.578;2022-08-21T01:02:24;100718.97;;;20.89;64.06
3544;BME280;1786;52.870;9.578;2022-08-21T01:04:52;100721.63;;;20.89;64.25
3544;BME280;1786;52.870;9.578;2022-08-21T01:07:19;100722.84;;;20.60;65.11
3544;BME280;1786;52.870;9.578;2022-08-21T01:09:48;100727.59;;;20.66;65.03
3544;BME280;1786;52.870;9.578;2022-08-21T01:12:15;100731.28;;;20.65;64.52
3544;BME280;1786;52.870;9.578;2022-08-21T01:14:42;100729.34;;;20.84;64.49
3544;BME280;1786;52.870;9.578;2022-08-21T01:17:11;100726.59;;;20.67;64.60
3544;BME280;1786;52.870;9.578;2022-08-21T01:19:39;100734.72;;;20.84;64.07
3544;BME280;1786;52.870;9.578;2022-08-21T01:22:06;100736.56;;;20.83;64.19
3544;BME280;1786;52.870;9.578;2022-08-21T01:24:33;100735.38;;;20.78;64.08
3544;BME280;1786;52.870;9.578;2022-08-21T01:27:00;100731.81;;;20.69;64.27
3544;BME280;1786;52.870;9.578;2022-08-21T01:29:45;100725.66;;;20.85;63.90
3544;BME280;1786;52.870;9.578;2022-08-21T01:32:17;100723.94;;;20.75;64.07
3544;BME280;1786;52.870;9.578;2022-08-21T01:34:46;100722.59;;;20.53;64.70
3544;BME280;1786;52.870;9.578;2022-08-21T01:37:13;100722.59;;;20.71;64.03
3544;BME280;1786;52.870;9.578;2022-08-21T01:39:43;100716.22;;;20.72;63.84
3544;BME280;1786;52.870;9.578;2022-08-21T01:42:13;100713.50;;;20.64;64.10
3544;BME280;1786;52.870;9.578;2022-08-21T01:44:41;100714.44;;;20.55;64.32
3544;BME280;1786;52.870;9.578;2022-08-21T01:47:10;100709.44;;;20.60;64.38
3544;BME280;1786;52.870;9.578;2022-08-21T01:49:38;100716.34;;;20.45;64.64
3544;BME280;1786;52.870;9.578;2022-08-21T01:52:05;100709.50;;;20.50;64.26
3544;BME280;1786;52.870;9.578;2022-08-21T01:54:35;100706.31;;;20.47;64.16
3544;BME280;1786;52.870;9.578;2022-08-21T01:57:03;100711.88;;;20.27;64.65
3544;BME280;1786;52.870;9.578;2022-08-21T01:59:30;100704.88;;;20.35;64.28
3544;BME280;1786;52.870;9.578;2022-08-21T02:01:57;100704.75;;;20.36;64.17
3544;BME280;1786;52.870;9.578;2022-08-21T02:04:23;100701.78;;;20.47;63.72
3544;BME280;1786;52.870;9.578;2022-08-21T02:06:51;100701.53;;;20.59;63.84
3544;BME280;1786;52.870;9.578;2022-08-21T02:09:18;100704.69;;;20.54;63.64
3544;BME280;1786;52.870;9.578;2022-08-21T02:11:45;100702.25;;;20.43;63.62
3544;BME280;1786;52.870;9.578;2022-08-21T02:14:13;100703.94;;;20.44;63.73
3544;BME280;1786;52.870;9.578;2022-08-21T02:16:57;100705.97;;;20.50;63.53
3544;BME280;1786;52.870;9.578;2022-08-21T02:19:34;100696.09;;;20.24;63.88
3544;BME280;1786;52.870;9.578;2022-08-21T02:22:08;100697.50;;;20.10;64.36
3544;BME280;1786;52.870;9.578;2022-08-21T02:24:37;100700.66;;;20.06;64.45
3544;BME280;1786;52.870;9.578;2022-08-21T02:27:22;100706.81;;;20.24;64.14
3544;BME280;1786;52.870;9.578;2022-08-21T02:29:53;100700.91;;;20.39;63.78
3544;BME280;1786;52.870;9.578;2022-08-21T02:32:20;100697.88;;;20.42;63.25
3544;BME280;1786;52.870;9.578;2022-08-21T02:34:47;100702.25;;;20.43;64.36
3544;BME280;1786;52.870;9.578;2022-08-21T02:37:15;100692.16;;;20.37;64.64
3544;BME280;1786;52.870;9.578;2022-08-21T02:39:41;100698.00;;;20.32;64.95
3544;BME280;1786;52.870;9.578;2022-08-21T02:42:08;100701.50;;;20.32;64.96
3544;BME280;1786;52.870;9.578;2022-08-21T02:44:34;100702.19;;;20.35;64.70
3544;BME280;1786;52.870;9.578;2022-08-21T02:47:01;100700.81;;;20.30;64.68
3544;BME280;1786;52.870;9.578;2022-08-21T02:49:28;100703.91;;;20.18;65.37
3544;BME280;1786;52.870;9.578;2022-08-21T02:51:55;100701.13;;;20.27;64.89
3544;BME280;1786;52.870;9.578;2022-08-21T02:54:22;100697.75;;;20.25;64.92
3544;BME280;1786;52.870;9.578;2022-08-21T02:56:49;100694.19;;;20.17;65.33
3544;BME280;1786;52.870;9.578;2022-08-21T02:59:15;100689.75;;;20.07;66.12
3544;BME280;1786;52.870;9.578;2022-08-21T03:01:43;100685.56;;;20.05;66.13
3544;BME280;1786;52.870;9.578;2022-08-21T03:04:10;100683.94;;;20.12;65.98
3544;BME280;1786;52.870;9.578;2022-08-21T03:06:37;100679.09;;;20.16;65.51
3544;BME280;1786;52.870;9.578;2022-08-21T03:09:03;100672.50;;;20.10;65.58
3544;BME280;1786;52.870;9.578;2022-08-21T03:11:30;100683.28;;;20.18;64.64
3544;BME280;1786;52.870;9.578;2022-08-21T03:13:57;100677.03;;;20.09;64.75
3544;BME280;1786;52.870;9.578;2022-08-21T03:16:23;100681.75;;;20.16;64.25
3544;BME280;1786;52.870;9.578;2022-08-21T03:18:50;100671.34;;;20.13;64.17
3544;BME280;1786;52.870;9.578;2022-08-21T03:21:16;100673.56;;;19.91;64.13
3544;BME280;1786;52.870;9.578;2022-08-21T03:23:45;100673.56;;;19.91;64.72
3544;BME280;1786;52.870;9.578;2022-08-21T03:26:12;100669.25;;;19.80;64.87
3544;BME280;1786;52.870;9.578;2022-08-21T03:28:39;100674.03;;;19.69;65.73
3544;BME280;1786;52.870;9.578;2022-08-21T03:31:05;100672.06;;;19.71;65.72
3544;BME280;1786;52.870;9.578;2022-08-21T03:33:32;100668.41;;;19.62;65.90
3544;BME280;1786;52.870;9.578;2022-08-21T03:36:06;100666.38;;;19.74;65.58
3544;BME280;1786;52.870;9.578;2022-08-21T03:38:34;100669.75;;;19.76;65.36
3544;BME280;1786;52.870;9.578;2022-08-21T03:41:02;100669.75;;;19.76;65.63
3544;BME280;1786;52.870;9.578;2022-08-21T03:43:30;100668.88;;;19.75;65.39
3544;BME280;1786;52.870;9.578;2022-08-21T03:46:00;100668.44;;;19.80;65.49
3544;BME280;1786;52.870;9.578;2022-08-21T03:48:27;100670.59;;;19.76;65.90
3544;BME280;1786;52.870;9.578;2022-08-21T03:50:54;100670.59;;;19.76;65.92
3544;BME280;1786;52.870;9.578;2022-08-21T03:53:21;100666.59;;;19.80;65.75
3544;BME280;1786;52.870;9.578;2022-08-21T03:55:49;100662.47;;;19.86;65.69
3544;BME280;1786;52.870;9.578;2022-08-21T03:58:19;100666.81;;;19.87;65.50
3544;BME280;1786;52.870;9.578;2022-08-21T04:00:52;100658.25;;;19.83;65.09
3544;BME280;1786;52.870;9.578;2022-08-21T04:03:18;100668.88;;;19.75;65.44
3544;BME280;1786;52.870;9.578;2022-08-21T04:05:46;100665.22;;;19.76;65.06
3544;BME280;1786;52.870;9.578;2022-08-21T04:08:14;100665.81;;;19.70;65.69
3544;BME280;1786;52.870;9.578;2022-08-21T04:10:45;100667.25;;;19.64;65.94
3544;BME280;1786;52.870;9.578;2022-08-21T04:13:13;100660.47;;;19.70;65.59
3544;BME280;1786;52.870;9.578;2022-08-21T04:15:42;100671.66;;;19.83;65.44
3544;BME280;1786;52.870;9.578;2022-08-21T04:18:09;100667.97;;;19.84;65.36
3544;BME280;1786;52.870;9.578;2022-08-21T04:20:36;100672.41;;;19.94;65.09
3544;BME280;1786;52.870;9.578;2022-08-21T04:23:03;100670.34;;;19.87;65.09
3544;BME280;1786;52.870;9.578;2022-08-21T04:25:31;100669.34;;;19.88;65.01
3544;BME280;1786;52.870;9.578;2022-08-21T04:27:58;100678.19;;;19.81;65.01
3544;BME280;1786;52.870;9.578;2022-08-21T04:30:24;100682.91;;;19.87;64.85
3544;BME280;1786;52.870;9.578;2022-08-21T04:32:55;100683.28;;;19.92;64.85
3544;BME280;1786;52.870;9.578;2022-08-21T04:35:24;100686.47;;;19.96;64.75
3544;BME280;1786;52.870;9.578;2022-08-21T04:37:51;100688.19;;;19.97;65.07
3544;BME280;1786;52.870;9.578;2022-08-21T04:40:19;100682.19;;;20.03;65.06
3544;BME280;1786;52.870;9.578;2022-08-21T04:42:49;100684.94;;;20.11;64.97
3544;BME280;1786;52.870;9.578;2022-08-21T04:45:22;100694.56;;;20.22;64.85
3544;BME280;1786;52.870;9.578;2022-08-21T04:47:51;100693.47;;;20.32;64.83
3544;BME280;1786;52.870;9.578;2022-08-21T04:50:22;100689.91;;;20.24;65.33
3544;BME280;1786;52.870;9.578;2022-08-21T04:53:04;100695.81;;;20.36;65.45
3544;BME280;1786;52.870;9.578;2022-08-21T04:55:31;100695.81;;;20.09;65.94
3544;BME280;1786;52.870;9.578;2022-08-21T04:57:59;100691.16;;;20.38;65.61
3544;BME280;1786;52.870;9.578;2022-08-21T05:00:26;100697.69;;;20.61;65.86
3544;BME280;1786;52.870;9.578;2022-08-21T05:02:54;100691.00;;;20.65;65.91
3544;BME280;1786;52.870;9.578;2022-08-21T05:05:23;100707.25;;;20.98;65.63
3544;BME280;1786;52.870;9.578;2022-08-21T05:07:51;100703.97;;;21.12;65.05
3544;BME280;1786;52.870;9.578;2022-08-21T05:10:19;100702.16;;;21.29;64.62
3544;BME280;1786;52.870;9.578;2022-08-21T05:12:47;100705.75;;;21.54;64.83
3544;BME280;1786;52.870;9.578;2022-08-21T05:15:14;100700.75;;;22.00;63.48
3544;BME280;1786;52.870;9.578;2022-08-21T05:17:43;100695.28;;;22.58;64.18
3544;BME280;1786;52.870;9.578;2022-08-21T05:20:19;100704.97;;;23.31;61.02
3544;BME280;1786;52.870;9.578;2022-08-21T05:22:46;100707.59;;;24.08;58.77
3544;BME280;1786;52.870;9.578;2022-08-21T05:25:13;100710.78;;;24.50;57.98
3544;BME280;1786;52.870;9.578;2022-08-21T05:27:42;100713.19;;;24.74;58.29
3544;BME280;1786;52.870;9.578;2022-08-21T05:30:09;100713.19;;;25.19;56.23
3544;BME280;1786;52.870;9.578;2022-08-21T05:32:36;100716.06;;;25.54;55.50
3544;BME280;1786;52.870;9.578;2022-08-21T05:35:07;100716.97;;;25.82;55.66
3544;BME280;1786;52.870;9.578;2022-08-21T05:37:34;100723.66;;;26.29;55.01
3544;BME280;1786;52.870;9.578;2022-08-21T05:40:02;100718.31;;;26.43;55.08
3544;BME280;1786;52.870;9.578;2022-08-21T05:42:49;100726.13;;;26.52;53.36
3544;BME280;1786;52.870;9.578;2022-08-21T05:45:27;100721.91;;;26.50;54.42
3544;BME280;1786;52.870;9.578;2022-08-21T05:50:37;100730.47;;;28.44;49.79
3544;BME280;1786;52.870;9.578;2022-08-21T05:53:05;100731.00;;;28.86;48.98
3544;BME280;1786;52.870;9.578;2022-08-21T05:55:33;100723.50;;;28.75;49.83
3544;BME280;1786;52.870;9.578;2022-08-21T05:58:02;100730.44;;;28.71;49.10
3544;BME280;1786;52.870;9.578;2022-08-21T06:00:29;100721.44;;;28.64;49.96
3544;BME280;1786;52.870;9.578;2022-08-21T06:02:56;100727.31;;;28.47;49.21
3544;BME280;1786;52.870;9.578;2022-08-21T06:05:23;100718.56;;;28.05;50.11
3544;BME280;1786;52.870;9.578;2022-08-21T06:08:02;100715.38;;;27.62;50.42
3544;BME280;1786;52.870;9.578;2022-08-21T06:10:29;100719.66;;;27.36;51.40
3544;BME280;1786;52.870;9.578;2022-08-21T06:12:56;100717.56;;;27.25;51.87
3544;BME280;1786;52.870;9.578;2022-08-21T06:15:23;100713.31;;;27.09;52.26
3544;BME280;1786;52.870;9.578;2022-08-21T06:17:49;100711.50;;;26.82;53.51
3544;BME280;1786;52.870;9.578;2022-08-21T06:20:16;100713.09;;;26.69;54.78
3544;BME280;1786;52.870;9.578;2022-08-21T06:22:43;100715.03;;;26.47;54.46
3544;BME280;1786;52.870;9.578;2022-08-21T06:25:10;100711.66;;;26.39;54.27
3544;BME280;1786;52.870;9.578;2022-08-21T06:27:37;100706.66;;;26.42;55.52
3544;BME280;1786;52.870;9.578;2022-08-21T06:30:06;100713.22;;;26.26;55.62
3544;BME280;1786;52.870;9.578;2022-08-21T06:32:33;100713.25;;;26.33;55.36
3544;BME280;1786;52.870;9.578;2022-08-21T06:35:00;100712.34;;;26.82;54.98
3544;BME280;1786;52.870;9.578;2022-08-21T06:37:27;100720.63;;;28.57;51.76
3544;BME280;1786;52.870;9.578;2022-08-21T06:39:54;100724.06;;;30.37;48.23
3544;BME280;1786;52.870;9.578;2022-08-21T06:42:21;100727.72;;;31.84;45.80
3544;BME280;1786;52.870;9.578;2022-08-21T06:44:54;100733.97;;;32.73;44.20
3544;BME280;1786;52.870;9.578;2022-08-21T06:47:21;100737.03;;;33.87;44.28
3544;BME280;1786;52.870;9.578;2022-08-21T06:49:48;100743.03;;;35.12;42.08
3544;BME280;1786;52.870;9.578;2022-08-21T06:52:15;100752.66;;;37.13;39.57
3544;BME280;1786;52.870;9.578;2022-08-21T06:54:42;100756.69;;;38.25;37.77
3544;BME280;1786;52.870;9.578;2022-08-21T06:57:09;100755.16;;;39.04;36.27
3544;BME280;1786;52.870;9.578;2022-08-21T06:59:35;100755.69;;;39.11;36.57
3544;BME280;1786;52.870;9.578;2022-08-21T07:02:02;100750.34;;;39.70;36.26
3544;BME280;1786;52.870;9.578;2022-08-21T07:04:29;100751.16;;;40.39;34.77
3544;BME280;1786;52.870;9.578;2022-08-21T07:06:56;100748.81;;;41.23;35.04
3544;BME280;1786;52.870;9.578;2022-08-21T07:09:23;100749.50;;;41.86;34.12
3544;BME280;1786;52.870;9.578;2022-08-21T07:11:53;100748.47;;;42.75;33.67
3544;BME280;1786;52.870;9.578;2022-08-21T07:14:21;100744.56;;;42.90;33.26
3544;BME280;1786;52.870;9.578;2022-08-21T07:16:49;100753.63;;;43.46;31.37
3544;BME280;1786;52.870;9.578;2022-08-21T07:19:17;100754.34;;;43.96;31.22
3544;BME280;1786;52.870;9.578;2022-08-21T07:21:44;100753.59;;;43.82;31.62
3544;BME280;1786;52.870;9.578;2022-08-21T07:24:11;100744.72;;;43.80;31.54
3544;BME280;1786;52.870;9.578;2022-08-21T07:26:38;100746.16;;;44.22;31.26
3544;BME280;1786;52.870;9.578;2022-08-21T07:29:05;100749.41;;;44.16;31.78
3544;BME280;1786;52.870;9.578;2022-08-21T07:31:31;100746.00;;;44.59;31.36
3544;BME280;1786;52.870;9.578;2022-08-21T07:33:58;100739.72;;;44.84;30.28
3544;BME280;1786;52.870;9.578;2022-08-21T07:36:25;100753.25;;;45.43;30.55
3544;BME280;1786;52.870;9.578;2022-08-21T07:38:52;100741.00;;;44.78;30.65
3544;BME280;1786;52.870;9.578;2022-08-21T07:41:22;100743.75;;;45.44;30.69
3544;BME280;1786;52.870;9.578;2022-08-21T07:43:49;100738.78;;;45.41;30.50
3544;BME280;1786;52.870;9.578;2022-08-21T07:46:18;100745.00;;;45.82;30.68
3544;BME280;1786;52.870;9.578;2022-08-21T07:48:45;100735.13;;;46.10;29.94
3544;BME280;1786;52.870;9.578;2022-08-21T07:51:14;100732.47;;;46.14;30.42
3544;BME280;1786;52.870;9.578;2022-08-21T07:53:41;100739.03;;;46.18;30.60
3544;BME280;1786;52.870;9.578;2022-08-21T07:56:08;100729.44;;;45.37;30.29
3544;BME280;1786;52.870;9.578;2022-08-21T07:58:35;100732.41;;;45.32;30.70
3544;BME280;1786;52.870;9.578;2022-08-21T08:01:01;100733.22;;;45.67;29.51
3544;BME280;1786;52.870;9.578;2022-08-21T08:03:28;100732.56;;;45.70;29.90
3544;BME280;1786;52.870;9.578;2022-08-21T08:05:56;100740.13;;;46.34;29.43
3544;BME280;1786;52.870;9.578;2022-08-21T08:08:23;100736.25;;;46.56;29.36
3544;BME280;1786;52.870;9.578;2022-08-21T08:10:51;100743.22;;;47.10;29.01
3544;BME280;1786;52.870;9.578;2022-08-21T08:16:48;100728.91;;;45.00;31.15
3544;BME280;1786;52.870;9.578;2022-08-21T08:19:14;100727.81;;;44.61;30.99
3544;BME280;1786;52.870;9.578;2022-08-21T08:21:41;100716.63;;;45.19;30.60
3544;BME280;1786;52.870;9.578;2022-08-21T08:24:08;100722.19;;;45.10;30.08
3544;BME280;1786;52.870;9.578;2022-08-21T08:26:45;100728.47;;;45.68;29.72
3544;BME280;1786;52.870;9.578;2022-08-21T08:29:19;100725.34;;;45.43;29.76
3544;BME280;1786;52.870;9.578;2022-08-21T08:31:46;100724.66;;;45.55;29.28
3544;BME280;1786;52.870;9.578;2022-08-21T08:34:13;100733.25;;;44.66;29.92
3544;BME280;1786;52.870;9.578;2022-08-21T08:36:51;100718.75;;;44.47;29.93
3544;BME280;1786;52.870;9.578;2022-08-21T08:39:18;100728.25;;;44.46;30.33
3544;BME280;1786;52.870;9.578;2022-08-21T08:42:08;100712.75;;;44.71;29.45
3544;BME280;1786;52.870;9.578;2022-08-21T08:45:11;100713.47;;;44.05;29.64
3544;BME280;1786;52.870;9.578;2022-08-21T08:47:43;100711.66;;;43.78;30.10
3544;BME280;1786;52.870;9.578;2022-08-21T08:50:38;100710.75;;;43.69;29.80
3544;BME280;1786;52.870;9.578;2022-08-21T08:53:20;100702.94;;;42.71;29.64
3544;BME280;1786;52.870;9.578;2022-08-21T08:55:51;100706.44;;;41.88;30.83
3544;BME280;1786;52.870;9.578;2022-08-21T08:58:23;100699.69;;;41.62;31.07
3544;BME280;1786;52.870;9.578;2022-08-21T09:00:52;100693.00;;;40.39;32.38
3544;BME280;1786;52.870;9.578;2022-08-21T09:03:21;100685.72;;;40.19;33.17
3544;BME280;1786;52.870;9.578;2022-08-21T09:06:03;100690.63;;;39.64;32.75
3544;BME280;1786;52.870;9.578;2022-08-21T09:08:39;100673.44;;;39.32;33.79
3544;BME280;1786;52.870;9.578;2022-08-21T09:11:22;100681.13;;;38.86;32.92
3544;BME280;1786;52.870;9.578;2022-08-21T09:22:00;100667.31;;;38.05;35.80
3544;BME280;1786;52.870;9.578;2022-08-21T09:25:33;100663.69;;;38.20;34.85
3544;BME280;1786;52.870;9.578;2022-08-21T09:27:28;100670.28;;;38.29;35.08
3544;BME280;1786;52.870;9.578;2022-08-21T09:29:56;100665.66;;;37.99;35.06
3544;BME280;1786;52.870;9.578;2022-08-21T09:32:27;100675.31;;;37.92;35.45
3544;BME280;1786;52.870;9.578;2022-08-21T09:35:17;100668.94;;;37.96;34.80
3544;BME280;1786;52.870;9.578;2022-08-21T09:45:38;100666.72;;;37.42;35.40
3544;BME280;1786;52.870;9.578;2022-08-21T09:48:18;100661.53;;;37.56;35.40
3544;BME280;1786;52.870;9.578;2022-08-21T09:50:47;100659.81;;;37.39;35.86
3544;BME280;1786;52.870;9.578;2022-08-21T09:53:20;100655.84;;;36.84;35.87
3544;BME280;1786;52.870;9.578;2022-08-21T09:55:56;100659.72;;;36.88;35.60
3544;BME280;1786;52.870;9.578;2022-08-21T09:58:48;100654.78;;;37.00;37.07
3544;BME280;1786;52.870;9.578;2022-08-21T10:01:22;100651.72;;;36.87;35.92
3544;BME280;1786;52.870;9.578;2022-08-21T10:04:05;100659.16;;;36.91;36.60
3544;BME280;1786;52.870;9.578;2022-08-21T10:06:34;100649.25;;;36.90;35.82
3544;BME280;1786;52.870;9.578;2022-08-21T10:09:18;100645.91;;;36.73;36.44
3544;BME280;1786;52.870;9.578;2022-08-21T10:17:33;100641.19;;;36.68;36.18
3544;BME280;1786;52.870;9.578;2022-08-21T10:25:41;100637.78;;;36.51;36.44
3544;BME280;1786;52.870;9.578;2022-08-21T10:28:49;100632.91;;;36.10;36.09
3544;BME280;1786;52.870;9.578;2022-08-21T10:31:36;100638.19;;;35.52;37.10
3544;BME280;1786;52.870;9.578;2022-08-21T10:42:28;100637.53;;;36.52;37.35
3544;BME280;1786;52.870;9.578;2022-08-21T10:47:30;100637.69;;;36.98;36.27
3544;BME280;1786;52.870;9.578;2022-08-21T10:50:17;100638.84;;;37.08;37.25
3544;BME280;1786;52.870;9.578;2022-08-21T10:52:56;100629.66;;;36.87;36.26
3544;BME280;1786;52.870;9.578;2022-08-21T10:55:33;100630.81;;;36.96;35.62
3544;BME280;1786;52.870;9.578;2022-08-21T10:58:08;100633.75;;;36.74;35.58
3544;BME280;1786;52.870;9.578;2022-08-21T11:00:43;100636.06;;;36.97;35.74
3544;BME280;1786;52.870;9.578;2022-08-21T11:03:24;100636.91;;;36.40;36.68
3544;BME280;1786;52.870;9.578;2022-08-21T11:06:01;100631.13;;;36.36;35.87
3544;BME280;1786;52.870;9.578;2022-08-21T11:08:44;100631.03;;;36.84;36.61
3544;BME280;1786;52.870;9.578;2022-08-21T11:11:31;100636.81;;;36.77;37.12
3544;BME280;1786;52.870;9.578;2022-08-21T11:14:08;100636.00;;;36.72;36.05
3544;BME280;1786;52.870;9.578;2022-08-21T11:16:41;100637.44;;;36.95;37.17
3544;BME280;1786;52.870;9.578;2022-08-21T11:19:15;100634.94;;;37.03;36.21
3544;BME280;1786;52.870;9.578;2022-08-21T11:21:52;100637.88;;;36.66;37.27
3544;BME280;1786;52.870;9.578;2022-08-21T11:24:30;100641.00;;;37.00;36.54
3544;BME280;1786;52.870;9.578;2022-08-21T11:27:09;100635.00;;;37.50;35.65
3544;BME280;1786;52.870;9.578;2022-08-21T11:29:43;100639.34;;;36.99;36.68
3544;BME280;1786;52.870;9.578;2022-08-21T11:33:22;100638.56;;;36.41;36.81
3544;BME280;1786;52.870;9.578;2022-08-21T11:38:33;100638.31;;;37.11;36.65
3544;BME280;1786;52.870;9.578;2022-08-21T11:41:23;100628.44;;;37.71;35.35
3544;BME280;1786;52.870;9.578;2022-08-21T11:46:44;100639.81;;;36.66;37.48
3544;BME280;1786;52.870;9.578;2022-08-21T11:49:35;100629.25;;;36.52;36.10
3544;BME280;1786;52.870;9.578;2022-08-21T11:52:16;100632.78;;;36.37;36.37
3544;BME280;1786;52.870;9.578;2022-08-21T11:55:05;100630.75;;;36.17;37.73
3544;BME280;1786;52.870;9.578;2022-08-21T11:57:45;100627.09;;;36.07;37.62
3544;BME280;1786;52.870;9.578;2022-08-21T12:00:18;100633.06;;;36.41;36.31
3544;BME280;1786;52.870;9.578;2022-08-21T12:02:52;100623.38;;;35.91;37.78
3544;BME280;1786;52.870;9.578;2022-08-21T12:05:30;100626.06;;;35.43;37.63
3544;BME280;1786;52.870;9.578;2022-08-21T12:08:13;100626.59;;;35.78;37.57
3544;BME280;1786;52.870;9.578;2022-08-21T12:11:01;100633.91;;;35.62;37.54
3544;BME280;1786;52.870;9.578;2022-08-21T12:13:31;100630.00;;;35.58;37.55
3544;BME280;1786;52.870;9.578;2022-08-21T12:16:15;100620.09;;;35.24;39.00
3544;BME280;1786;52.870;9.578;2022-08-21T12:19:11;100624.47;;;35.85;37.71
3544;BME280;1786;52.870;9.578;2022-08-21T12:26:56;100630.25;;;36.31;36.80
3544;BME280;1786;52.870;9.578;2022-08-21T12:29:33;100628.28;;;36.79;36.05
3544;BME280;1786;52.870;9.578;2022-08-21T12:35:01;100631.75;;;37.58;37.06
3544;BME280;1786;52.870;9.578;2022-08-21T12:37:39;100635.56;;;37.93;35.51
3544;BME280;1786;52.870;9.578;2022-08-21T12:40:28;100620.72;;;37.68;34.88
3544;BME280;1786;52.870;9.578;2022-08-21T12:42:59;100623.72;;;37.82;35.59
3544;BME280;1786;52.870;9.578;2022-08-21T12:45:40;100624.28;;;37.22;35.87
3544;BME280;1786;52.870;9.578;2022-08-21T12:50:44;100615.69;;;37.09;36.76
3544;BME280;1786;52.870;9.578;2022-08-21T12:53:30;100610.78;;;37.62;36.55
3544;BME280;1786;52.870;9.578;2022-08-21T12:56:04;100611.59;;;37.27;36.50
3544;BME280;1786;52.870;9.578;2022-08-21T12:58:35;100621.91;;;36.68;35.51
3544;BME280;1786;52.870;9.578;2022-08-21T13:01:06;100623.66;;;36.95;37.48
3544;BME280;1786;52.870;9.578;2022-08-21T13:03:35;100617.28;;;36.94;36.19
3544;BME280;1786;52.870;9.578;2022-08-21T13:06:04;100604.00;;;36.66;37.49
3544;BME280;1786;52.870;9.578;2022-08-21T13:08:35;100613.91;;;36.67;37.27
3544;BME280;1786;52.870;9.578;2022-08-21T13:11:07;100604.13;;;37.32;36.06
3544;BME280;1786;52.870;9.578;2022-08-21T13:13:39;100614.34;;;37.47;36.61
3544;BME280;1786;52.870;9.578;2022-08-21T13:16:12;100609.94;;;37.31;35.46
3544;BME280;1786;52.870;9.578;2022-08-21T13:18:56;100611.50;;;36.91;37.14
3544;BME280;1786;52.870;9.578;2022-08-21T13:21:29;100601.81;;;36.73;35.71
3544;BME280;1786;52.870;9.578;2022-08-21T13:24:15;100597.72;;;36.91;35.12
3544;BME280;1786;52.870;9.578;2022-08-21T13:27:03;100601.66;;;37.05;37.65
3544;BME280;1786;52.870;9.578;2022-08-21T13:29:33;100597.13;;;36.63;36.99
3544;BME280;1786;52.870;9.578;2022-08-21T13:32:05;100598.25;;;36.67;36.96
3544;BME280;1786;52.870;9.578;2022-08-21T13:34:35;100597.72;;;36.80;36.20
3544;BME280;1786;52.870;9.578;2022-08-21T13:37:05;100598.91;;;37.15;35.55
3544;BME280;1786;52.870;9.578;2022-08-21T13:39:33;100601.03;;;36.88;36.28
3544;BME280;1786;52.870;9.578;2022-08-21T13:42:03;100593.66;;;36.30;36.48
3544;BME280;1786;52.870;9.578;2022-08-21T13:44:40;100589.56;;;36.38;36.44
3544;BME280;1786;52.870;9.578;2022-08-21T13:47:09;100590.69;;;36.42;35.01
3544;BME280;1786;52.870;9.578;2022-08-21T13:49:40;100588.81;;;36.05;37.17
3544;BME280;1786;52.870;9.578;2022-08-21T13:52:21;100587.97;;;36.47;37.49
3544;BME280;1786;52.870;9.578;2022-08-21T13:55:06;100592.38;;;36.53;36.37
3544;BME280;1786;52.870;9.578;2022-08-21T13:57:36;100591.13;;;36.97;35.81
3544;BME280;1786;52.870;9.578;2022-08-21T14:02:42;100587.38;;;36.40;37.42
3544;BME280;1786;52.870;9.578;2022-08-21T14:05:28;100597.56;;;36.39;36.13
3544;BME280;1786;52.870;9.578;2022-08-21T14:08:12;100590.34;;;36.28;36.80
3544;BME280;1786;52.870;9.578;2022-08-21T14:10:49;100593.41;;;36.37;35.99
3544;BME280;1786;52.870;9.578;2022-08-21T14:13:35;100594.09;;;36.65;36.92
3544;BME280;1786;52.870;9.578;2022-08-21T14:21:29;100591.47;;;37.36;35.95
3544;BME280;1786;52.870;9.578;2022-08-21T14:24:05;100585.38;;;37.50;35.21
3544;BME280;1786;52.870;9.578;2022-08-21T14:26:35;100585.34;;;37.03;35.27
3544;BME280;1786;52.870;9.578;2022-08-21T14:29:08;100590.59;;;36.22;35.71
3544;BME280;1786;52.870;9.578;2022-08-21T14:31:36;100585.44;;;36.35;35.18
3544;BME280;1786;52.870;9.578;2022-08-21T14:34:12;100585.81;;;36.07;35.47
3544;BME280;1786;52.870;9.578;2022-08-21T14:36:46;100581.88;;;36.40;35.74
3544;BME280;1786;52.870;9.578;2022-08-21T14:39:13;100588.13;;;36.20;35.72
3544;BME280;1786;52.870;9.578;2022-08-21T14:41:39;100587.69;;;36.01;37.04